createdAt,value
2018-03-16T00:00:28.955Z,64.60
2018-03-16T00:01:28.909Z,64.40
2018-03-16T00:02:28.863Z,62.40
2018-03-16T00:03:28.817Z,62.50
2018-03-16T00:04:28.771Z,63.20
2018-03-16T00:05:28.746Z,65.50
2018-03-16T00:06:28.681Z,64.60
2018-03-16T00:07:28.635Z,63.30
2018-03-16T00:08:28.588Z,64.30
2018-03-16T00:09:28.542Z,64.00
2018-03-16T00:10:28.499Z,62.90
2018-03-16T00:11:28.454Z,66.90
2018-03-16T00:12:28.407Z,66.40
2018-03-16T00:13:28.358Z,66.40
2018-03-16T00:14:28.315Z,71.50
2018-03-16T00:15:28.268Z,72.50
2018-03-16T00:16:28.226Z,74.10
2018-03-16T00:17:28.176Z,71.60
2018-03-16T00:18:28.132Z,70.10
2018-03-16T00:19:28.102Z,67.10
2018-03-16T00:20:28.043Z,71.60
2018-03-16T00:21:27.994Z,70.10
2018-03-16T00:22:27.948Z,75.00
2018-03-16T00:23:27.903Z,72.80
2018-03-16T00:24:27.860Z,68.20
2018-03-16T00:25:27.816Z,66.10
2018-03-16T00:26:27.767Z,68.50
2018-03-16T00:27:27.722Z,67.90
2018-03-16T00:28:27.678Z,68.40
2018-03-16T00:29:27.632Z,66.30
2018-03-16T00:30:27.584Z,77.30
2018-03-16T00:31:27.540Z,73.20
2018-03-16T00:32:27.492Z,70.60
2018-03-16T00:33:27.447Z,72.10
2018-03-16T00:34:27.409Z,76.00
2018-03-16T00:35:27.355Z,78.80
2018-03-16T00:36:27.314Z,76.20
2018-03-16T00:37:27.263Z,77.70
2018-03-16T00:38:27.217Z,73.20
2018-03-16T00:39:27.172Z,80.20
2018-03-16T00:40:27.127Z,73.50
2018-03-16T00:41:27.082Z,74.40
2018-03-16T00:42:27.041Z,76.20
2018-03-16T00:43:26.989Z,79.20
2018-03-16T00:44:26.945Z,79.70
2018-03-16T00:45:26.898Z,88.20
2018-03-16T00:46:26.856Z,81.50
2018-03-16T00:47:26.808Z,81.10
2018-03-16T00:48:26.763Z,92.00
2018-03-16T00:49:26.719Z,79.40
2018-03-16T00:50:26.672Z,79.70
2018-03-16T00:51:26.627Z,78.00
2018-03-16T00:52:26.584Z,79.30
2018-03-16T00:53:26.537Z,75.00
2018-03-16T00:54:26.487Z,79.00
2018-03-16T00:55:26.439Z,78.20
2018-03-16T00:56:26.436Z,82.70
2018-03-16T00:57:26.350Z,84.30
2018-03-16T00:58:26.304Z,78.70
2018-03-16T00:59:26.262Z,82.10
2018-03-16T01:00:26.217Z,80.30
2018-03-16T01:01:26.167Z,87.10
2018-03-16T01:02:26.127Z,80.40
2018-03-16T01:03:26.075Z,85.10
2018-03-16T01:04:26.032Z,84.90
2018-03-16T01:05:25.994Z,77.80
2018-03-16T01:06:25.939Z,87.80
2018-03-16T01:07:25.892Z,83.50
2018-03-16T01:08:25.855Z,76.50
2018-03-16T01:09:25.802Z,87.60
2018-03-16T01:10:25.760Z,92.90
2018-03-16T01:11:25.715Z,91.90
2018-03-16T01:12:25.668Z,85.10
2018-03-16T01:13:25.619Z,90.70
2018-03-16T01:14:25.658Z,91.40
2018-03-16T01:15:25.531Z,86.30
2018-03-16T01:16:25.494Z,92.20
2018-03-16T01:17:25.439Z,87.90
2018-03-16T01:18:25.389Z,91.90
2018-03-16T01:19:25.349Z,91.10
2018-03-16T01:20:25.299Z,96.30
2018-03-16T01:21:25.253Z,88.80
2018-03-16T01:22:25.207Z,94.40
2018-03-16T01:23:25.165Z,86.30
2018-03-16T01:24:25.114Z,81.40
2018-03-16T01:25:25.074Z,86.30
2018-03-16T01:26:25.023Z,87.90
2018-03-16T01:27:24.979Z,89.30
2018-03-16T01:28:24.936Z,86.40
2018-03-16T01:29:24.889Z,78.80
2018-03-16T01:30:24.848Z,79.80
2018-03-16T01:31:24.797Z,82.30
2018-03-16T01:32:24.748Z,77.80
2018-03-16T01:33:24.708Z,79.00
2018-03-16T01:34:24.656Z,97.00
2018-03-16T01:35:24.611Z,86.80
2018-03-16T01:36:24.566Z,88.90
2018-03-16T01:37:24.519Z,85.40
2018-03-16T01:38:24.474Z,83.80
2018-03-16T01:39:24.427Z,85.90
2018-03-16T01:40:24.381Z,78.50
2018-03-16T01:41:24.335Z,83.50
2018-03-16T01:42:24.290Z,87.10
2018-03-16T01:43:24.245Z,80.70
2018-03-16T01:44:24.200Z,80.00
2018-03-16T01:45:24.153Z,78.50
2018-03-16T01:46:24.109Z,81.80
2018-03-16T01:47:24.064Z,80.30
2018-03-16T01:48:24.014Z,80.90
2018-03-16T01:49:23.967Z,86.10
2018-03-16T01:50:23.923Z,83.10
2018-03-16T01:51:23.882Z,89.40
2018-03-16T01:52:23.876Z,84.80
2018-03-16T01:53:23.787Z,92.20
2018-03-16T01:54:23.739Z,96.70
2018-03-16T01:55:23.694Z,102.60
2018-03-16T01:56:23.648Z,99.00
2018-03-16T01:57:23.603Z,105.50
2018-03-16T01:58:23.556Z,105.10
2018-03-16T01:59:23.511Z,102.50
2018-03-16T02:00:23.467Z,102.70
2018-03-16T02:01:23.422Z,109.70
2018-03-16T02:02:23.373Z,106.00
2018-03-16T02:03:23.329Z,103.20
2018-03-16T02:04:23.283Z,112.80
2018-03-16T02:05:23.235Z,97.40
2018-03-16T02:06:23.190Z,96.10
2018-03-16T02:07:23.146Z,96.70
2018-03-16T02:08:23.106Z,97.10
2018-03-16T02:09:23.052Z,94.70
2018-03-16T02:10:23.008Z,92.90
2018-03-16T02:11:22.965Z,99.20
2018-03-16T02:12:22.915Z,101.10
2018-03-16T02:13:22.870Z,99.50
2018-03-16T02:14:22.823Z,105.40
2018-03-16T02:15:22.778Z,103.60
2018-03-16T02:16:22.732Z,111.20
2018-03-16T02:17:22.686Z,104.10
2018-03-16T02:18:22.642Z,94.40
2018-03-16T02:19:22.594Z,94.50
2018-03-16T02:20:22.548Z,103.20
2018-03-16T02:21:22.505Z,107.40
2018-03-16T02:22:22.458Z,105.90
2018-03-16T02:23:22.410Z,93.80
2018-03-16T02:24:22.426Z,90.80
2018-03-16T02:25:22.318Z,91.50
2018-03-16T02:26:22.275Z,101.50
2018-03-16T02:27:22.233Z,88.00
2018-03-16T02:28:22.182Z,88.00
2018-03-16T02:29:22.135Z,84.40
2018-03-16T02:30:22.091Z,84.50
2018-03-16T02:31:22.045Z,85.60
2018-03-16T02:32:22.000Z,90.30
2018-03-16T02:33:21.970Z,93.00
2018-03-16T02:34:21.911Z,84.00
2018-03-16T02:35:21.861Z,77.30
2018-03-16T02:36:21.817Z,87.80
2018-03-16T02:37:21.774Z,81.10
2018-03-16T02:38:21.724Z,88.10
2018-03-16T02:39:21.679Z,82.40
2018-03-16T02:40:21.631Z,80.70
2018-03-16T02:41:21.600Z,82.90
2018-03-16T02:42:21.543Z,84.60
2018-03-16T02:43:21.496Z,77.50
2018-03-16T02:44:21.447Z,79.00
2018-03-16T02:45:21.402Z,75.70
2018-03-16T02:46:21.355Z,82.50
2018-03-16T02:47:21.309Z,78.90
2018-03-16T02:48:21.264Z,75.20
2018-03-16T02:49:21.218Z,79.40
2018-03-16T02:50:21.171Z,77.90
2018-03-16T02:51:21.128Z,77.90
2018-03-16T02:52:21.082Z,81.40
2018-03-16T02:53:21.033Z,77.80
2018-03-16T02:54:20.986Z,82.20
2018-03-16T02:55:20.943Z,81.90
2018-03-16T02:56:20.899Z,82.90
2018-03-16T02:57:20.852Z,82.70
2018-03-16T02:58:20.810Z,80.60
2018-03-16T02:59:20.757Z,84.40
2018-03-16T03:00:20.709Z,79.60
2018-03-16T03:01:20.667Z,82.80
2018-03-16T03:02:20.619Z,81.20
2018-03-16T03:03:20.575Z,81.70
2018-03-16T03:04:20.526Z,81.10
2018-03-16T03:05:20.484Z,88.40
2018-03-16T03:06:20.435Z,87.70
2018-03-16T03:07:20.389Z,86.00
2018-03-16T03:08:20.342Z,83.00
2018-03-16T03:09:20.297Z,89.70
2018-03-16T03:10:20.249Z,91.90
2018-03-16T03:11:20.205Z,90.10
2018-03-16T03:12:20.157Z,82.00
2018-03-16T03:13:20.111Z,84.00
2018-03-16T03:14:20.067Z,81.80
2018-03-16T03:15:20.023Z,92.70
2018-03-16T03:16:19.977Z,79.60
2018-03-16T03:17:19.929Z,88.70
2018-03-16T03:18:19.886Z,87.60
2018-03-16T03:19:19.840Z,94.30
2018-03-16T03:20:19.789Z,82.80
2018-03-16T03:21:19.743Z,86.60
2018-03-16T03:22:19.698Z,87.00
2018-03-16T03:23:19.699Z,83.10
2018-03-16T03:24:19.604Z,87.90
2018-03-16T03:25:19.559Z,85.70
2018-03-16T03:26:19.514Z,80.00
2018-03-16T03:27:19.468Z,93.40
2018-03-16T03:28:19.422Z,81.10
2018-03-16T03:29:19.377Z,80.20
2018-03-16T03:30:19.331Z,81.20
2018-03-16T03:31:19.285Z,82.60
2018-03-16T03:32:19.239Z,84.00
2018-03-16T03:33:19.192Z,86.50
2018-03-16T03:34:19.146Z,82.50
2018-03-16T03:35:19.099Z,79.00
2018-03-16T03:36:19.053Z,81.80
2018-03-16T03:37:19.009Z,82.50
2018-03-16T03:38:18.961Z,81.70
2018-03-16T03:39:18.914Z,78.20
2018-03-16T03:40:18.870Z,84.50
2018-03-16T03:41:18.823Z,82.10
2018-03-16T03:42:18.778Z,80.60
2018-03-16T03:43:18.730Z,81.60
2018-03-16T03:44:18.685Z,80.80
2018-03-16T03:45:18.637Z,86.30
2018-03-16T03:46:18.594Z,87.70
2018-03-16T03:47:18.545Z,94.60
2018-03-16T03:48:18.499Z,84.00
2018-03-16T03:49:18.452Z,87.20
2018-03-16T03:50:18.409Z,89.10
2018-03-16T03:51:18.361Z,87.90
2018-03-16T03:52:18.318Z,81.80
2018-03-16T03:53:18.269Z,87.50
2018-03-16T03:54:18.229Z,91.60
2018-03-16T03:55:18.188Z,87.50
2018-03-16T03:56:18.147Z,89.40
2018-03-16T03:57:18.088Z,84.30
2018-03-16T03:58:18.038Z,85.30
2018-03-16T03:59:17.993Z,81.00
2018-03-16T04:00:17.948Z,82.60
2018-03-16T04:01:17.900Z,84.30
2018-03-16T04:02:17.860Z,81.60
2018-03-16T04:03:17.810Z,82.30
2018-03-16T04:04:17.763Z,84.50
2018-03-16T04:05:17.716Z,79.50
2018-03-16T04:06:17.671Z,85.90
2018-03-16T04:07:17.625Z,86.10
2018-03-16T04:08:17.578Z,88.70
2018-03-16T04:09:17.532Z,96.60
2018-03-16T04:10:17.487Z,85.60
2018-03-16T04:11:17.439Z,90.50
2018-03-16T04:12:17.397Z,83.40
2018-03-16T04:13:17.349Z,80.80
2018-03-16T04:14:17.300Z,83.90
2018-03-16T04:15:17.257Z,80.90
2018-03-16T04:16:17.206Z,84.40
2018-03-16T04:17:17.165Z,85.20
2018-03-16T04:18:17.121Z,81.10
2018-03-16T04:19:17.102Z,79.30
2018-03-16T04:20:17.026Z,77.20
2018-03-16T04:21:16.980Z,76.80
2018-03-16T04:22:16.934Z,78.20
2018-03-16T04:23:16.888Z,77.70
2018-03-16T04:24:16.839Z,78.80
2018-03-16T04:25:16.796Z,78.40
2018-03-16T04:26:16.747Z,79.10
2018-03-16T04:27:16.703Z,78.20
2018-03-16T04:28:16.657Z,80.00
2018-03-16T04:29:16.609Z,81.30
2018-03-16T04:30:16.563Z,83.10
2018-03-16T04:31:16.518Z,76.40
2018-03-16T04:32:16.472Z,79.30
2018-03-16T04:33:16.427Z,74.60
2018-03-16T04:34:16.382Z,75.80
2018-03-16T04:35:16.336Z,76.40
2018-03-16T04:36:16.288Z,75.10
2018-03-16T04:37:16.241Z,78.50
2018-03-16T04:38:16.195Z,77.90
2018-03-16T04:39:16.149Z,80.30
2018-03-16T04:40:16.104Z,80.70
2018-03-16T04:41:16.057Z,83.50
2018-03-16T04:42:16.011Z,81.10
2018-03-16T04:43:15.966Z,83.80
2018-03-16T04:44:15.927Z,84.50
2018-03-16T04:45:16.135Z,85.90
2018-03-16T04:46:16.464Z,87.80
2018-03-16T04:47:15.881Z,87.40
2018-03-16T04:48:15.735Z,88.30
2018-03-16T04:49:15.689Z,95.00
2018-03-16T04:50:15.646Z,84.30
2018-03-16T04:51:15.598Z,93.20
2018-03-16T04:52:15.554Z,86.90
2018-03-16T04:53:15.508Z,88.30
2018-03-16T04:54:15.464Z,84.60
2018-03-16T04:55:15.415Z,87.60
2018-03-16T04:56:15.371Z,86.30
2018-03-16T04:57:15.372Z,92.40
2018-03-16T04:58:15.276Z,89.80
2018-03-16T04:59:15.230Z,85.70
2018-03-16T05:00:15.186Z,85.60
2018-03-16T05:01:15.144Z,84.30
2018-03-16T05:02:15.095Z,90.30
2018-03-16T05:03:15.064Z,93.50
2018-03-16T05:04:14.999Z,91.20
2018-03-16T05:05:14.952Z,82.80
2018-03-16T05:06:14.910Z,89.70
2018-03-16T05:07:14.866Z,86.90
2018-03-16T05:08:14.828Z,85.40
2018-03-16T05:09:14.780Z,88.20
2018-03-16T05:10:14.727Z,85.40
2018-03-16T05:11:14.681Z,93.90
2018-03-16T05:12:14.634Z,89.50
2018-03-16T05:13:14.598Z,92.80
2018-03-16T05:14:14.540Z,95.70
2018-03-16T05:15:14.494Z,99.20
2018-03-16T05:16:14.450Z,86.00
2018-03-16T05:17:14.407Z,97.10
2018-03-16T05:18:14.370Z,95.80
2018-03-16T05:19:14.311Z,92.30
2018-03-16T05:20:14.268Z,96.60
2018-03-16T05:21:14.220Z,94.30
2018-03-16T05:22:14.171Z,90.80
2018-03-16T05:23:14.126Z,90.10
2018-03-16T05:24:14.079Z,90.70
2018-03-16T05:25:14.036Z,89.40
2018-03-16T05:26:13.988Z,91.30
2018-03-16T05:27:13.942Z,94.10
2018-03-16T05:28:13.896Z,84.60
2018-03-16T05:29:13.908Z,86.10
2018-03-16T05:30:13.865Z,85.50
2018-03-16T05:31:13.758Z,93.70
2018-03-16T05:32:13.711Z,88.60
2018-03-16T05:33:13.665Z,88.40
2018-03-16T05:34:13.619Z,84.10
2018-03-16T05:35:13.574Z,82.40
2018-03-16T05:36:13.532Z,86.40
2018-03-16T05:37:13.483Z,89.10
2018-03-16T05:38:13.433Z,91.90
2018-03-16T05:39:13.390Z,90.50
2018-03-16T05:40:13.341Z,90.70
2018-03-16T05:41:13.297Z,92.70
2018-03-16T05:42:13.251Z,86.70
2018-03-16T05:43:13.207Z,89.90
2018-03-16T05:44:13.157Z,91.10
2018-03-16T05:45:13.113Z,89.80
2018-03-16T05:46:13.066Z,88.70
2018-03-16T05:47:13.022Z,87.40
2018-03-16T05:48:12.973Z,90.80
2018-03-16T05:49:12.930Z,91.70
2018-03-16T05:50:12.882Z,101.40
2018-03-16T05:51:12.835Z,82.50
2018-03-16T05:52:12.790Z,86.20
2018-03-16T05:53:12.762Z,82.80
2018-03-16T05:54:12.698Z,81.60
2018-03-16T05:55:12.654Z,86.80
2018-03-16T05:56:12.610Z,86.30
2018-03-16T05:57:12.558Z,87.80
2018-03-16T05:58:12.513Z,85.00
2018-03-16T05:59:12.471Z,86.30
2018-03-16T06:00:12.425Z,87.20
2018-03-16T06:01:12.376Z,86.10
2018-03-16T06:02:12.328Z,87.60
2018-03-16T06:03:12.285Z,84.00
2018-03-16T06:04:12.239Z,83.50
2018-03-16T06:05:12.198Z,87.10
2018-03-16T06:06:12.145Z,89.20
2018-03-16T06:07:12.098Z,88.30
2018-03-16T06:08:12.053Z,85.20
2018-03-16T06:09:12.012Z,91.40
2018-03-16T06:10:11.966Z,88.30
2018-03-16T06:11:11.937Z,84.50
2018-03-16T06:12:11.886Z,88.90
2018-03-16T06:13:11.838Z,88.70
2018-03-16T06:14:11.778Z,88.40
2018-03-16T06:15:11.737Z,83.00
2018-03-16T06:16:11.687Z,86.00
2018-03-16T06:17:11.637Z,86.00
2018-03-16T06:18:11.592Z,82.70
2018-03-16T06:19:11.550Z,85.50
2018-03-16T06:20:11.508Z,86.20
2018-03-16T06:21:11.466Z,86.00
2018-03-16T06:22:11.414Z,79.70
2018-03-16T06:23:11.367Z,84.60
2018-03-16T06:24:11.316Z,85.30
2018-03-16T06:25:11.269Z,84.80
2018-03-16T06:26:11.223Z,78.10
2018-03-16T06:27:11.177Z,84.20
2018-03-16T06:28:11.128Z,86.20
2018-03-16T06:29:11.083Z,82.60
2018-03-16T06:30:11.041Z,84.50
2018-03-16T06:31:10.997Z,81.20
2018-03-16T06:32:10.948Z,82.10
2018-03-16T06:33:10.899Z,84.60
2018-03-16T06:34:10.854Z,81.00
2018-03-16T06:35:10.814Z,77.70
2018-03-16T06:36:10.764Z,74.10
2018-03-16T06:37:10.718Z,80.40
2018-03-16T06:38:10.667Z,82.40
2018-03-16T06:39:10.622Z,75.40
2018-03-16T06:40:10.574Z,81.50
2018-03-16T06:41:10.531Z,77.90
2018-03-16T06:42:10.482Z,80.00
2018-03-16T06:43:10.439Z,82.00
2018-03-16T06:44:10.391Z,77.70
2018-03-16T06:45:10.344Z,77.10
2018-03-16T06:46:10.301Z,78.00
2018-03-16T06:47:10.252Z,69.80
2018-03-16T06:48:10.218Z,81.90
2018-03-16T06:49:10.163Z,73.90
2018-03-16T06:50:10.111Z,75.40
2018-03-16T06:51:10.070Z,78.00
2018-03-16T06:52:10.021Z,78.10
2018-03-16T06:53:09.973Z,81.90
2018-03-16T06:54:09.929Z,75.90
2018-03-16T06:55:09.881Z,85.60
2018-03-16T06:56:09.835Z,76.50
2018-03-16T06:57:09.790Z,75.60
2018-03-16T06:58:09.744Z,76.80
2018-03-16T06:59:09.698Z,77.00
2018-03-16T07:00:09.653Z,68.60
2018-03-16T07:01:09.604Z,72.70
2018-03-16T07:02:09.561Z,71.70
2018-03-16T07:03:09.513Z,79.70
2018-03-16T07:04:09.465Z,75.40
2018-03-16T07:05:09.420Z,71.90
2018-03-16T07:06:09.376Z,70.40
2018-03-16T07:07:09.329Z,78.70
2018-03-16T07:08:09.283Z,74.90
2018-03-16T07:09:09.240Z,71.70
2018-03-16T07:10:09.192Z,77.20
2018-03-16T07:11:09.144Z,77.40
2018-03-16T07:12:09.134Z,75.40
2018-03-16T07:13:09.051Z,79.90
2018-03-16T07:14:09.005Z,72.80
2018-03-16T07:15:08.959Z,71.10
2018-03-16T07:16:08.911Z,68.40
2018-03-16T07:17:08.870Z,73.20
2018-03-16T07:18:08.821Z,69.10
2018-03-16T07:19:08.774Z,68.70
2018-03-16T07:20:08.734Z,71.10
2018-03-16T07:21:08.683Z,66.70
2018-03-16T07:22:08.636Z,67.50
2018-03-16T07:23:08.640Z,73.60
2018-03-16T07:24:08.544Z,67.90
2018-03-16T07:25:08.496Z,70.70
2018-03-16T07:26:08.454Z,68.80
2018-03-16T07:27:08.405Z,67.60
2018-03-16T07:28:08.357Z,68.20
2018-03-16T07:29:08.313Z,70.40
2018-03-16T07:30:08.266Z,67.70
2018-03-16T07:31:08.221Z,66.00
2018-03-16T07:32:08.176Z,68.40
2018-03-16T07:33:08.127Z,68.10
2018-03-16T07:34:08.083Z,66.70
2018-03-16T07:35:08.040Z,63.40
2018-03-16T07:36:07.994Z,61.30
2018-03-16T07:37:07.950Z,70.90
2018-03-16T07:38:07.900Z,60.90
2018-03-16T07:39:07.849Z,63.10
2018-03-16T07:40:07.808Z,66.30
2018-03-16T07:41:07.758Z,66.10
2018-03-16T07:42:07.717Z,66.60
2018-03-16T07:43:07.672Z,63.60
2018-03-16T07:44:07.618Z,60.90
2018-03-16T07:45:07.574Z,66.00
2018-03-16T07:46:07.530Z,61.00
2018-03-16T07:47:07.482Z,58.90
2018-03-16T07:48:07.434Z,60.20
2018-03-16T07:49:07.389Z,62.90
2018-03-16T07:50:07.342Z,53.20
2018-03-16T07:51:07.300Z,63.40
2018-03-16T07:52:07.251Z,59.10
2018-03-16T07:53:07.203Z,57.00
2018-03-16T07:54:07.157Z,57.70
2018-03-16T07:55:07.113Z,55.10
2018-03-16T07:56:07.075Z,57.80
2018-03-16T07:57:07.020Z,60.80
2018-03-16T07:58:06.973Z,55.50
2018-03-16T07:59:06.926Z,56.30
2018-03-16T08:00:06.879Z,58.50
2018-03-16T08:01:06.841Z,56.20
2018-03-16T08:02:06.793Z,58.10
2018-03-16T08:03:06.743Z,60.90
2018-03-16T08:04:06.697Z,66.10
2018-03-16T08:05:06.653Z,66.40
2018-03-16T08:06:06.604Z,62.80
2018-03-16T08:07:06.563Z,62.90
2018-03-16T08:08:06.511Z,65.30
2018-03-16T08:09:06.464Z,63.50
2018-03-16T08:10:06.419Z,65.40
2018-03-16T08:11:06.376Z,59.60
2018-03-16T08:12:06.331Z,60.80
2018-03-16T08:13:06.279Z,62.50
2018-03-16T08:14:06.234Z,60.50
2018-03-16T08:15:06.210Z,62.50
2018-03-16T08:16:06.143Z,62.50
2018-03-16T08:17:06.095Z,60.40
2018-03-16T08:18:06.052Z,60.60
2018-03-16T08:19:06.004Z,58.40
2018-03-16T08:20:05.959Z,58.90
2018-03-16T08:21:05.914Z,59.00
2018-03-16T08:22:05.873Z,60.90
2018-03-16T08:23:05.820Z,59.50
2018-03-16T08:24:05.772Z,62.80
2018-03-16T08:25:05.729Z,62.80
2018-03-16T08:26:05.682Z,64.80
2018-03-16T08:27:05.637Z,59.70
2018-03-16T08:28:05.667Z,60.60
2018-03-16T08:29:05.545Z,60.80
2018-03-16T08:30:05.498Z,60.70
2018-03-16T08:31:05.451Z,61.40
2018-03-16T08:32:05.405Z,66.80
2018-03-16T08:33:05.359Z,62.60
2018-03-16T08:34:05.324Z,60.50
2018-03-16T08:35:05.270Z,56.40
2018-03-16T08:36:05.221Z,55.60
2018-03-16T08:37:05.176Z,57.00
2018-03-16T08:38:05.129Z,51.80
2018-03-16T08:39:05.085Z,52.30
2018-03-16T08:40:05.037Z,55.80
2018-03-16T08:41:04.991Z,59.50
2018-03-16T08:42:04.948Z,54.10
2018-03-16T08:43:04.901Z,55.60
2018-03-16T08:44:04.855Z,54.90
2018-03-16T08:45:04.814Z,54.30
2018-03-16T08:46:04.777Z,54.20
2018-03-16T08:47:04.714Z,52.50
2018-03-16T08:48:04.669Z,53.10
2018-03-16T08:49:04.625Z,55.40
2018-03-16T08:50:04.580Z,53.90
2018-03-16T08:51:04.532Z,54.00
2018-03-16T08:52:04.484Z,58.50
2018-03-16T08:53:04.439Z,52.70
2018-03-16T08:54:04.392Z,56.70
2018-03-16T08:55:04.349Z,53.80
2018-03-16T08:56:04.300Z,56.70
2018-03-16T08:57:04.254Z,54.60
2018-03-16T08:58:04.213Z,57.10
2018-03-16T08:59:04.166Z,57.80
2018-03-16T09:00:04.121Z,55.90
2018-03-16T09:01:04.070Z,58.80
2018-03-16T09:02:04.024Z,59.30
2018-03-16T09:03:03.982Z,58.50
2018-03-16T09:04:03.932Z,56.40
2018-03-16T09:05:03.889Z,54.70
2018-03-16T09:06:03.841Z,57.80
2018-03-16T09:07:03.800Z,58.00
2018-03-16T09:08:03.746Z,56.80
2018-03-16T09:09:03.710Z,53.40
2018-03-16T09:10:03.655Z,58.70
2018-03-16T09:11:03.614Z,58.60
2018-03-16T09:12:03.565Z,57.00
2018-03-16T09:13:03.518Z,56.10
2018-03-16T09:14:03.472Z,56.60
2018-03-16T09:15:03.426Z,56.20
2018-03-16T09:16:03.379Z,56.70
2018-03-16T09:17:03.332Z,55.70
2018-03-16T09:18:03.290Z,62.30
2018-03-16T09:19:03.241Z,58.30
2018-03-16T09:20:03.193Z,59.30
2018-03-16T09:21:03.152Z,60.30
2018-03-16T09:22:03.104Z,59.60
2018-03-16T09:23:03.060Z,58.50
2018-03-16T09:24:03.011Z,59.90
2018-03-16T09:25:02.962Z,58.90
2018-03-16T09:26:02.917Z,62.10
2018-03-16T09:27:02.870Z,63.70
2018-03-16T09:28:02.824Z,58.50
2018-03-16T09:29:02.778Z,64.20
2018-03-16T09:30:02.734Z,65.00
2018-03-16T09:31:02.688Z,67.00
2018-03-16T09:32:02.641Z,67.50
2018-03-16T09:33:02.596Z,71.60
2018-03-16T09:34:02.550Z,71.60
2018-03-16T09:35:02.501Z,71.60
2018-03-16T09:36:02.456Z,63.80
2018-03-16T09:37:02.409Z,71.00
2018-03-16T09:38:02.361Z,71.20
2018-03-16T09:39:02.317Z,70.90
2018-03-16T09:40:02.269Z,68.80
2018-03-16T09:41:02.223Z,60.10
2018-03-16T09:42:02.183Z,62.90
2018-03-16T09:43:02.166Z,63.70
2018-03-16T09:44:02.089Z,60.30
2018-03-16T09:45:02.038Z,57.80
2018-03-16T09:46:01.995Z,56.20
2018-03-16T09:47:01.948Z,58.80
2018-03-16T09:48:01.903Z,57.40
2018-03-16T09:49:01.856Z,54.30
2018-03-16T09:50:01.810Z,52.60
2018-03-16T09:51:01.763Z,52.30
2018-03-16T09:52:01.716Z,52.60
2018-03-16T09:53:01.673Z,51.20
2018-03-16T09:54:01.623Z,51.60
2018-03-16T09:55:01.595Z,48.30
2018-03-16T09:56:01.533Z,53.00
2018-03-16T09:57:01.497Z,51.70
2018-03-16T09:58:01.439Z,55.00
2018-03-16T09:59:01.392Z,53.30
2018-03-16T10:00:01.346Z,49.50
2018-03-16T10:01:01.306Z,46.20
2018-03-16T10:02:01.257Z,46.80
2018-03-16T10:03:01.206Z,47.70
2018-03-16T10:04:01.160Z,44.90
2018-03-16T10:05:01.115Z,45.90
2018-03-16T10:06:01.068Z,46.10
2018-03-16T10:07:01.024Z,45.10
2018-03-16T10:08:00.976Z,45.20
2018-03-16T10:09:00.939Z,45.90
2018-03-16T10:10:00.883Z,45.00
2018-03-16T10:11:00.839Z,45.40
2018-03-16T10:12:00.843Z,48.30
2018-03-16T10:13:00.746Z,48.90
2018-03-16T10:14:00.700Z,46.80
2018-03-16T10:15:00.656Z,43.60
2018-03-16T10:16:00.611Z,44.50
2018-03-16T10:17:00.562Z,47.80
2018-03-16T10:18:00.514Z,47.30
2018-03-16T10:19:00.468Z,48.20
2018-03-16T10:20:00.420Z,49.30
2018-03-16T10:21:00.375Z,49.20
2018-03-16T10:22:00.330Z,48.30
2018-03-16T10:23:00.283Z,49.10
2018-03-16T10:24:00.240Z,46.80
2018-03-16T10:25:00.193Z,46.60
2018-03-16T10:26:00.147Z,51.50
2018-03-16T10:27:00.098Z,52.30
2018-03-16T10:28:00.053Z,50.10
2018-03-16T10:29:00.011Z,50.90
2018-03-16T10:29:59.961Z,50.00
2018-03-16T10:30:59.916Z,49.70
2018-03-16T10:31:59.870Z,49.60
2018-03-16T10:32:59.821Z,48.20
2018-03-16T10:33:59.782Z,49.50
2018-03-16T10:34:59.733Z,51.60
2018-03-16T10:35:59.687Z,50.10
2018-03-16T10:36:59.641Z,49.40
2018-03-16T10:37:59.593Z,50.40
2018-03-16T10:38:59.547Z,52.40
2018-03-16T10:39:59.499Z,51.30
2018-03-16T10:40:59.455Z,55.40
2018-03-16T10:41:59.408Z,57.80
2018-03-16T10:42:59.366Z,57.60
2018-03-16T10:43:59.318Z,57.90
2018-03-16T10:44:59.276Z,54.60
2018-03-16T10:45:59.224Z,56.40
2018-03-16T10:46:59.177Z,55.50
2018-03-16T10:47:59.129Z,55.40
2018-03-16T10:48:59.136Z,56.50
2018-03-16T10:49:59.039Z,53.30
2018-03-16T10:50:58.996Z,54.10
2018-03-16T10:51:58.948Z,55.90
2018-03-16T10:52:58.902Z,52.20
2018-03-16T10:53:58.856Z,48.90
2018-03-16T10:54:58.810Z,54.40
2018-03-16T10:55:58.765Z,52.20
2018-03-16T10:56:58.726Z,49.30
2018-03-16T10:57:58.676Z,50.90
2018-03-16T10:58:58.628Z,52.20
2018-03-16T10:59:58.580Z,51.20
2018-03-16T11:00:58.535Z,51.00
2018-03-16T11:01:58.490Z,49.70
2018-03-16T11:02:58.443Z,48.90
2018-03-16T11:03:58.396Z,47.90
2018-03-16T11:04:58.351Z,48.70
2018-03-16T11:05:58.305Z,45.00
2018-03-16T11:06:58.260Z,49.80
2018-03-16T11:07:58.212Z,48.00
2018-03-16T11:08:58.169Z,48.70
2018-03-16T11:09:58.121Z,49.70
2018-03-16T11:10:58.078Z,47.60
2018-03-16T11:11:58.031Z,47.80
2018-03-16T11:12:57.986Z,47.20
2018-03-16T11:13:57.944Z,46.00
2018-03-16T11:14:57.891Z,44.40
2018-03-16T11:15:57.846Z,42.30
2018-03-16T11:16:57.802Z,42.80
2018-03-16T11:17:57.752Z,42.00
2018-03-16T11:18:57.706Z,43.40
2018-03-16T11:19:57.659Z,38.80
2018-03-16T11:20:57.615Z,41.00
2018-03-16T11:21:57.567Z,41.00
2018-03-16T11:22:57.522Z,43.00
2018-03-16T11:23:57.475Z,43.80
2018-03-16T11:24:57.432Z,43.60
2018-03-16T11:25:57.384Z,43.90
2018-03-16T11:26:57.339Z,43.20
2018-03-16T11:27:57.291Z,40.90
2018-03-16T11:28:57.247Z,40.50
2018-03-16T11:29:57.199Z,41.30
2018-03-16T11:30:57.155Z,40.00
2018-03-16T11:31:57.111Z,40.20
2018-03-16T11:32:57.064Z,38.40
2018-03-16T11:33:57.016Z,38.20
2018-03-16T11:34:56.969Z,37.10
2018-03-16T11:35:56.925Z,36.20
2018-03-16T11:36:56.879Z,35.80
2018-03-16T11:37:56.835Z,35.50
2018-03-16T11:38:56.787Z,34.50
2018-03-16T11:39:56.744Z,35.30
2018-03-16T11:40:56.699Z,36.20
2018-03-16T11:41:56.656Z,34.20
2018-03-16T11:42:56.608Z,33.50
2018-03-16T11:43:56.574Z,33.80
2018-03-16T11:44:56.513Z,33.60
2018-03-16T11:45:56.467Z,32.90
2018-03-16T11:46:56.425Z,34.20
2018-03-16T11:47:56.374Z,33.90
2018-03-16T11:48:56.328Z,31.40
2018-03-16T11:49:56.280Z,33.50
2018-03-16T11:50:56.236Z,33.10
2018-03-16T11:51:56.188Z,33.20
2018-03-16T11:52:56.144Z,33.20
2018-03-16T11:53:56.096Z,33.20
2018-03-16T11:54:56.054Z,34.10
2018-03-16T11:55:56.005Z,32.30
2018-03-16T11:56:55.963Z,34.10
2018-03-16T11:57:55.913Z,35.90
2018-03-16T11:58:55.868Z,34.30
2018-03-16T11:59:55.823Z,34.80
2018-03-16T12:00:55.780Z,34.60
2018-03-16T12:01:55.735Z,34.70
2018-03-16T12:02:55.688Z,39.30
2018-03-16T12:03:55.640Z,37.20
2018-03-16T12:04:55.592Z,36.80
2018-03-16T12:05:55.550Z,38.50
2018-03-16T12:06:55.506Z,37.70
2018-03-16T12:07:55.460Z,41.30
2018-03-16T12:08:55.409Z,41.90
2018-03-16T12:09:55.364Z,42.60
2018-03-16T12:10:55.318Z,45.80
2018-03-16T12:11:55.272Z,43.20
2018-03-16T12:12:55.227Z,48.10
2018-03-16T12:13:55.183Z,49.10
2018-03-16T12:14:55.141Z,48.60
2018-03-16T12:15:55.089Z,51.00
2018-03-16T12:16:55.049Z,53.90
2018-03-16T12:17:54.997Z,51.20
2018-03-16T12:18:54.955Z,54.10
2018-03-16T12:19:54.908Z,53.00
2018-03-16T12:20:54.865Z,49.80
2018-03-16T12:21:54.815Z,53.80
2018-03-16T12:22:54.771Z,54.90
2018-03-16T12:23:54.730Z,50.60
2018-03-16T12:24:54.681Z,50.70
2018-03-16T12:25:54.637Z,47.80
2018-03-16T12:26:54.589Z,47.60
2018-03-16T12:27:54.543Z,48.00
2018-03-16T12:28:54.495Z,48.40
2018-03-16T12:29:54.457Z,48.30
2018-03-16T12:30:54.439Z,49.90
2018-03-16T12:31:54.362Z,48.10
2018-03-16T12:32:54.319Z,48.60
2018-03-16T12:33:54.272Z,48.00
2018-03-16T12:34:54.227Z,45.00
2018-03-16T12:35:54.176Z,47.90
2018-03-16T12:36:54.139Z,46.40
2018-03-16T12:37:54.093Z,44.90
2018-03-16T12:38:54.041Z,44.10
2018-03-16T12:39:53.995Z,46.30
2018-03-16T12:40:53.958Z,45.20
2018-03-16T12:41:53.908Z,48.20
2018-03-16T12:42:53.861Z,45.40
2018-03-16T12:43:53.816Z,43.70
2018-03-16T12:44:53.768Z,42.90
2018-03-16T12:45:53.723Z,41.60
2018-03-16T12:46:53.680Z,44.00
2018-03-16T12:47:53.643Z,45.10
2018-03-16T12:48:53.585Z,46.10
2018-03-16T12:49:53.540Z,43.20
2018-03-16T12:50:53.500Z,42.30
2018-03-16T12:51:53.450Z,43.00